Andrews, South Carolina
Current Conditions -  °F | °C
As of 3:55 PM on Monday 24 Nov 2014 (Local Time) from KCKI Reporting Station
NA  
Wind Chill: 68°   Ceiling: NA
Heat Index: 68°   Visibility: 10mi
Dew Point: 66°   Wind: 5mph
Humidity: 94%   Direction: 180°S
Pressure: 29.87"   Gusts: NA
Location:  33.45°N, 79.56°W
Report Text: KCKI 242055Z AUTO 18004KT 10SM 20/19 A2987 RMK AO2 LTG DSNT W P0008
Loading
Personal Weather Stations






























Interactive Weather Map New forecast layout! Learn more

10-Day Weather Forecast

Advertisements
Track Severe Weather on mobile